createdAt,value
2019-03-27T00:02:46.714Z,101395.73
2019-03-27T00:07:50.172Z,101390.77
2019-03-27T00:12:53.639Z,101388.80
2019-03-27T00:17:57.103Z,101392.75
2019-03-27T00:23:00.559Z,101384.05
2019-03-27T00:28:04.101Z,101382.25
2019-03-27T00:33:07.563Z,101379.47
2019-03-27T00:38:11.021Z,101385.23
2019-03-27T00:43:14.489Z,101387.03
2019-03-27T00:48:17.950Z,101387.20
2019-03-27T00:53:21.413Z,101397.72
2019-03-27T00:58:24.871Z,101391.96
2019-03-27T01:03:28.332Z,101390.58
2019-03-27T01:08:31.788Z,101395.53
2019-03-27T01:13:35.243Z,101394.36
2019-03-27T01:18:38.700Z,101399.11
2019-03-27T01:23:42.166Z,101397.73
2019-03-27T01:28:45.630Z,101393.95
2019-03-27T01:33:49.096Z,101397.11
2019-03-27T01:38:52.551Z,101394.75
2019-03-27T01:43:56.008Z,101398.50
2019-03-27T01:48:59.469Z,101396.52
2019-03-27T01:54:03.104Z,101391.95
2019-03-27T01:59:06.564Z,101395.34
2019-03-27T02:04:10.024Z,101400.69
2019-03-27T02:09:13.485Z,101405.06
2019-03-27T02:14:16.944Z,101404.86
2019-03-27T02:19:20.403Z,101412.18
2019-03-27T02:24:23.864Z,101410.00
2019-03-27T02:29:27.329Z,101413.95
2019-03-27T02:34:30.793Z,101410.79
2019-03-27T02:39:34.277Z,101412.56
2019-03-27T02:44:37.735Z,101425.06
2019-03-27T02:49:41.204Z,101427.04
2019-03-27T02:54:44.675Z,101430.78
2019-03-27T02:59:48.145Z,101423.26
2019-03-27T03:04:51.676Z,101425.83
2019-03-27T03:09:55.138Z,101433.98
2019-03-27T03:14:58.599Z,101429.81
2019-03-27T03:20:02.060Z,101426.24
2019-03-27T03:25:06.205Z,101431.77
2019-03-27T03:30:12.231Z,101437.93
2019-03-27T03:35:15.798Z,101435.75
2019-03-27T03:40:19.323Z,101446.84
2019-03-27T03:45:22.800Z,101447.44
2019-03-27T03:50:35.395Z,101450.41
2019-03-27T03:55:39.888Z,101461.31
2019-03-27T04:00:43.430Z,101458.13
2019-03-27T04:05:46.931Z,101463.87
2019-03-27T04:10:50.354Z,101465.06
2019-03-27T04:15:53.821Z,101457.53
2019-03-27T04:20:57.281Z,101460.69
2019-03-27T04:26:09.732Z,101466.83
2019-03-27T04:31:06.094Z,101470.41
2019-03-27T04:36:09.559Z,101473.77
2019-03-27T04:41:13.023Z,101475.95
2019-03-27T04:46:16.480Z,101477.55
2019-03-27T04:51:19.944Z,101486.08
2019-03-27T04:56:23.408Z,101486.87
2019-03-27T05:01:26.873Z,101491.21
2019-03-27T05:06:30.344Z,101488.64
2019-03-27T05:11:33.801Z,101486.25
2019-03-27T05:16:37.260Z,101492.39
2019-03-27T05:21:40.729Z,101497.77
2019-03-27T05:26:44.192Z,101508.03
2019-03-27T05:31:47.649Z,101512.23
2019-03-27T05:36:51.107Z,101525.69
2019-03-27T05:41:54.574Z,101524.68
2019-03-27T05:46:58.025Z,101535.77
2019-03-27T05:52:01.479Z,101538.55
2019-03-27T05:57:05.025Z,101533.00
2019-03-27T06:02:08.485Z,101539.14
2019-03-27T06:07:11.944Z,101545.66
2019-03-27T06:12:15.408Z,101548.64
2019-03-27T06:17:18.864Z,101558.34
2019-03-27T06:22:22.329Z,101564.90
2019-03-27T06:27:25.790Z,101569.06
2019-03-27T06:32:29.248Z,101574.41
2019-03-27T06:37:32.709Z,101579.36
2019-03-27T06:42:36.172Z,101587.68
2019-03-27T06:47:39.632Z,101576.94
2019-03-27T06:52:43.083Z,101582.52
2019-03-27T06:57:46.544Z,101578.35
2019-03-27T07:02:50.006Z,101581.12
2019-03-27T07:07:53.464Z,101586.09
2019-03-27T07:12:56.920Z,101591.63
2019-03-27T07:18:00.382Z,101595.59
2019-03-27T07:23:03.849Z,101611.27
2019-03-27T07:28:07.310Z,101620.17
2019-03-27T07:33:10.776Z,101617.02
2019-03-27T07:38:14.237Z,101630.67
2019-03-27T07:43:17.696Z,101626.52
2019-03-27T07:48:21.157Z,101633.83
2019-03-27T07:53:24.618Z,101638.41
2019-03-27T07:58:28.077Z,101645.94
2019-03-27T08:03:31.536Z,101634.84
2019-03-27T08:08:34.997Z,101639.98
2019-03-27T08:13:38.458Z,101640.39
2019-03-27T08:18:41.915Z,101638.59
2019-03-27T08:23:45.376Z,101634.43
2019-03-27T08:28:48.831Z,101634.25
2019-03-27T08:33:52.303Z,101632.45
2019-03-27T08:38:55.770Z,101637.34
2019-03-27T08:43:59.271Z,101639.98
2019-03-27T08:49:02.696Z,101638.19
2019-03-27T08:54:06.155Z,101645.47
2019-03-27T08:59:09.616Z,101645.06
2019-03-27T09:04:13.079Z,101646.02
2019-03-27T09:09:16.540Z,101653.11
2019-03-27T09:14:19.999Z,101658.77
2019-03-27T09:19:34.860Z,101641.22
2019-03-27T09:24:28.641Z,101644.27
2019-03-27T09:29:32.105Z,101652.64
2019-03-27T09:34:35.585Z,101642.02
2019-03-27T09:39:39.068Z,101643.63
2019-03-27T09:44:42.523Z,101634.34
2019-03-27T09:49:49.754Z,101641.34
2019-03-27T09:54:51.209Z,101650.09
2019-03-27T09:59:54.684Z,101655.05
2019-03-27T10:04:58.161Z,101652.91
2019-03-27T10:10:01.643Z,101656.90
2019-03-27T10:15:07.883Z,101652.16
2019-03-27T10:20:13.672Z,101657.71
2019-03-27T10:25:17.093Z,101664.64
2019-03-27T10:30:20.557Z,101661.02
2019-03-27T10:35:24.013Z,101660.60
2019-03-27T10:40:27.496Z,101666.19
2019-03-27T10:45:31.128Z,101667.99
2019-03-27T10:50:34.583Z,101664.44
2019-03-27T10:55:38.042Z,101666.41
2019-03-27T11:00:41.496Z,101658.95
2019-03-27T11:05:44.958Z,101667.87
2019-03-27T11:10:48.421Z,101669.69
2019-03-27T11:15:51.881Z,101661.40
2019-03-27T11:20:55.348Z,101657.84
2019-03-27T11:25:58.805Z,101661.62
2019-03-27T11:31:02.263Z,101666.78
2019-03-27T11:36:05.721Z,101657.47
2019-03-27T11:41:12.068Z,101664.31
2019-03-27T11:46:14.358Z,101668.47
2019-03-27T11:51:17.820Z,101671.67
2019-03-27T11:56:21.296Z,101664.52
2019-03-27T12:01:24.781Z,101657.42
2019-03-27T12:06:28.252Z,101654.47
2019-03-27T12:11:31.726Z,101654.02
2019-03-27T12:16:35.207Z,101652.11
2019-03-27T12:21:38.681Z,101648.81
2019-03-27T12:26:42.155Z,101650.84
2019-03-27T12:31:45.629Z,101651.69
2019-03-27T12:36:49.103Z,101648.58
2019-03-27T12:41:52.575Z,101652.38
2019-03-27T12:46:56.054Z,101651.83
2019-03-27T12:51:59.527Z,101650.09
2019-03-27T12:57:03.012Z,101653.67
2019-03-27T13:02:07.419Z,101646.78
2019-03-27T13:07:10.895Z,101645.81
2019-03-27T13:12:14.369Z,101646.41
2019-03-27T13:17:17.849Z,101643.67
2019-03-27T13:22:21.326Z,101635.17
2019-03-27T13:27:24.800Z,101645.09
2019-03-27T13:32:28.273Z,101643.70
2019-03-27T13:37:32.640Z,101642.94
2019-03-27T13:42:36.097Z,101634.41
2019-03-27T13:47:39.564Z,101632.26
2019-03-27T13:52:43.168Z,101629.48
2019-03-27T13:57:46.622Z,101625.14
2019-03-27T14:02:50.085Z,101624.17
2019-03-27T14:07:53.544Z,101622.58
2019-03-27T14:12:57.006Z,101620.80
2019-03-27T14:18:00.469Z,101619.23
2019-03-27T14:23:04.000Z,101623.20
2019-03-27T14:28:07.461Z,101618.23
2019-03-27T14:33:10.911Z,101617.05
2019-03-27T14:38:14.372Z,101613.48
2019-03-27T14:43:17.902Z,101611.30
2019-03-27T14:48:21.356Z,101604.36
2019-03-27T14:53:24.817Z,101610.91
2019-03-27T14:58:28.276Z,101607.13
2019-03-27T15:03:31.742Z,101604.15
2019-03-27T15:08:35.200Z,101604.94
2019-03-27T15:13:38.668Z,101612.47
2019-03-27T15:18:42.131Z,101612.47
2019-03-27T15:23:45.594Z,101611.09
2019-03-27T15:28:50.763Z,101604.36
2019-03-27T15:33:54.237Z,101611.70
2019-03-27T15:38:57.697Z,101602.78
2019-03-27T15:44:01.151Z,101604.38
2019-03-27T15:49:04.676Z,101598.23
2019-03-27T15:54:08.143Z,101599.21
2019-03-27T15:59:11.604Z,101604.59
2019-03-27T16:04:15.062Z,101596.64
2019-03-27T16:09:19.388Z,101597.26
2019-03-27T16:14:22.850Z,101597.85
2019-03-27T16:19:26.306Z,101597.44
2019-03-27T16:24:29.771Z,101595.84
2019-03-27T16:29:33.227Z,101591.47
2019-03-27T16:34:36.684Z,101589.29
2019-03-27T16:39:40.144Z,101592.06
2019-03-27T16:44:43.601Z,101590.67
2019-03-27T16:49:47.133Z,101591.27
2019-03-27T16:54:50.599Z,101587.52
2019-03-27T16:59:54.049Z,101595.05
2019-03-27T17:04:57.512Z,101603.17
2019-03-27T17:10:00.977Z,101603.55
2019-03-27T17:15:06.254Z,101606.72
2019-03-27T17:20:11.452Z,101615.05
2019-03-27T17:25:14.910Z,101611.89
2019-03-27T17:30:18.972Z,101620.39
2019-03-27T17:35:22.513Z,101626.56
2019-03-27T17:40:25.975Z,101629.13
2019-03-27T17:45:29.455Z,101637.46
2019-03-27T17:50:32.898Z,101640.44
2019-03-27T17:55:36.351Z,101640.86
2019-03-27T18:00:48.662Z,101644.81
2019-03-27T18:05:52.111Z,101638.05
2019-03-27T18:10:55.567Z,101652.97
2019-03-27T18:15:59.026Z,101660.50
2019-03-27T18:21:02.655Z,101655.74
2019-03-27T18:26:06.113Z,101664.84
2019-03-27T18:31:09.572Z,101674.56
2019-03-27T18:36:13.034Z,101678.13
2019-03-27T18:41:16.492Z,101687.84
2019-03-27T18:46:19.957Z,101688.27
2019-03-27T18:51:23.411Z,101702.53
2019-03-27T18:56:26.950Z,101697.18
2019-03-27T19:01:30.414Z,101701.34
2019-03-27T19:06:33.873Z,101711.06
2019-03-27T19:11:37.404Z,101716.62
2019-03-27T19:16:40.873Z,101722.17
2019-03-27T19:21:44.325Z,101722.17
2019-03-27T19:26:47.790Z,101730.70
2019-03-27T19:31:51.257Z,101728.73
2019-03-27T19:36:54.716Z,101729.35
2019-03-27T19:41:58.177Z,101730.75
2019-03-27T19:47:01.639Z,101736.72
2019-03-27T19:52:05.177Z,101741.47
2019-03-27T19:57:08.636Z,101740.08
2019-03-27T20:02:12.334Z,101736.13
2019-03-27T20:07:15.792Z,101738.17
2019-03-27T20:12:19.248Z,101728.66
2019-03-27T20:17:22.704Z,101739.77
2019-03-27T20:22:26.160Z,101735.01
2019-03-27T20:27:29.616Z,101738.97
2019-03-27T20:32:33.079Z,101738.17
2019-03-27T20:37:36.538Z,101733.55
2019-03-27T20:42:39.992Z,101721.66
2019-03-27T20:47:43.448Z,101729.98
2019-03-27T20:52:46.903Z,101730.58
2019-03-27T20:57:50.360Z,101730.58
2019-03-27T21:02:53.819Z,101728.38
2019-03-27T21:07:57.281Z,101727.41
2019-03-27T21:13:00.738Z,101734.36
2019-03-27T21:18:04.277Z,101729.98
2019-03-27T21:23:07.737Z,101727.20
2019-03-27T21:28:11.196Z,101726.61
2019-03-27T21:33:14.658Z,101731.96
2019-03-27T21:38:18.120Z,101731.75
2019-03-27T21:43:21.582Z,101738.91
2019-03-27T21:48:25.104Z,101744.04
2019-03-27T21:53:28.565Z,101741.85
2019-03-27T21:58:32.028Z,101740.46
2019-03-27T22:03:35.494Z,101745.22
2019-03-27T22:08:38.948Z,101746.81
2019-03-27T22:13:42.418Z,101748.20
2019-03-27T22:18:45.878Z,101755.73
2019-03-27T22:23:49.340Z,101757.70
2019-03-27T22:28:52.802Z,101756.53
2019-03-27T22:33:56.263Z,101760.70
2019-03-27T22:38:59.727Z,101762.27
2019-03-27T22:44:03.184Z,101760.62
2019-03-27T22:49:06.644Z,101773.28
2019-03-27T22:54:10.104Z,101764.95
2019-03-27T22:59:13.565Z,101770.66
2019-03-27T23:04:17.291Z,101761.73
2019-03-27T23:09:20.754Z,101762.71
2019-03-27T23:14:24.217Z,101761.70
2019-03-27T23:19:27.677Z,101766.25
2019-03-27T23:24:31.136Z,101763.84
2019-03-27T23:29:34.617Z,101770.61
2019-03-27T23:34:38.060Z,101774.18
2019-03-27T23:39:41.521Z,101762.03
2019-03-27T23:44:44.981Z,101754.72
2019-03-27T23:49:48.446Z,101757.88
2019-03-27T23:54:51.903Z,101756.09
2019-03-27T23:59:55.360Z,101753.70
